sensor_id;sensor_type;location;lat;lon;timestamp;temperature;humidity
71188;DHT22;58893;53.130;8.158;2023-04-15T00:00:28;12.10;72.20
71188;DHT22;58893;53.130;8.158;2023-04-15T00:02:53;12.10;72.60
71188;DHT22;58893;53.130;8.158;2023-04-15T00:05:20;12.10;72.70
71188;DHT22;58893;53.130;8.158;2023-04-15T00:07:45;12.00;73.40
71188;DHT22;58893;53.130;8.158;2023-04-15T00:10:12;12.00;72.40
71188;DHT22;58893;53.130;8.158;2023-04-15T00:12:39;12.00;72.50
71188;DHT22;58893;53.130;8.158;2023-04-15T00:15:05;12.00;72.60
71188;DHT22;58893;53.130;8.158;2023-04-15T00:17:32;11.90;72.60
71188;DHT22;58893;53.130;8.158;2023-04-15T00:19:58;11.90;72.70
71188;DHT22;58893;53.130;8.158;2023-04-15T00:22:25;11.90;72.80
71188;DHT22;58893;53.130;8.158;2023-04-15T00:24:52;11.80;73.00
71188;DHT22;58893;53.130;8.158;2023-04-15T00:27:17;11.80;76.10
71188;DHT22;58893;53.130;8.158;2023-04-15T00:29:43;11.80;73.50
71188;DHT22;58893;53.130;8.158;2023-04-15T00:32:09;11.80;73.80
71188;DHT22;58893;53.130;8.158;2023-04-15T00:34:35;11.70;73.90
71188;DHT22;58893;53.130;8.158;2023-04-15T00:37:01;11.70;74.00
71188;DHT22;58893;53.130;8.158;2023-04-15T00:39:27;11.70;74.10
71188;DHT22;58893;53.130;8.158;2023-04-15T00:41:52;11.70;74.10
71188;DHT22;58893;53.130;8.158;2023-04-15T00:44:19;11.60;74.00
71188;DHT22;58893;53.130;8.158;2023-04-15T00:46:45;11.60;74.10
71188;DHT22;58893;53.130;8.158;2023-04-15T00:49:11;11.60;74.30
71188;DHT22;58893;53.130;8.158;2023-04-15T00:51:37;11.50;74.50
71188;DHT22;58893;53.130;8.158;2023-04-15T00:54:04;11.50;75.00
71188;DHT22;58893;53.130;8.158;2023-04-15T00:56:30;11.50;74.80
71188;DHT22;58893;53.130;8.158;2023-04-15T00:58:58;11.50;74.90
71188;DHT22;58893;53.130;8.158;2023-04-15T01:01:25;11.40;76.80
71188;DHT22;58893;53.130;8.158;2023-04-15T01:03:51;11.50;75.00
71188;DHT22;58893;53.130;8.158;2023-04-15T01:06:17;11.50;75.10
71188;DHT22;58893;53.130;8.158;2023-04-15T01:08:43;11.40;75.20
71188;DHT22;58893;53.130;8.158;2023-04-15T01:11:13;11.40;75.30
71188;DHT22;58893;53.130;8.158;2023-04-15T01:13:39;11.40;75.40
71188;DHT22;58893;53.130;8.158;2023-04-15T01:16:07;11.40;75.50
71188;DHT22;58893;53.130;8.158;2023-04-15T01:18:33;11.40;75.60
71188;DHT22;58893;53.130;8.158;2023-04-15T01:21:00;11.40;75.80
71188;DHT22;58893;53.130;8.158;2023-04-15T01:23:26;11.40;76.00
71188;DHT22;58893;53.130;8.158;2023-04-15T01:25:53;11.40;76.10
71188;DHT22;58893;53.130;8.158;2023-04-15T01:28:19;11.40;76.30
71188;DHT22;58893;53.130;8.158;2023-04-15T01:30:45;11.40;76.40
71188;DHT22;58893;53.130;8.158;2023-04-15T01:33:11;11.40;76.40
71188;DHT22;58893;53.130;8.158;2023-04-15T01:35:36;11.30;77.00
71188;DHT22;58893;53.130;8.158;2023-04-15T01:38:05;11.30;76.20
71188;DHT22;58893;53.130;8.158;2023-04-15T01:40:34;11.30;76.20
71188;DHT22;58893;53.130;8.158;2023-04-15T01:43:01;11.30;76.20
71188;DHT22;58893;53.130;8.158;2023-04-15T01:45:28;11.20;76.20
71188;DHT22;58893;53.130;8.158;2023-04-15T01:47:54;11.20;76.40
71188;DHT22;58893;53.130;8.158;2023-04-15T01:50:20;11.20;76.50
71188;DHT22;58893;53.130;8.158;2023-04-15T01:52:46;11.20;76.70
71188;DHT22;58893;53.130;8.158;2023-04-15T01:55:13;11.20;76.90
71188;DHT22;58893;53.130;8.158;2023-04-15T01:57:39;11.20;77.20
71188;DHT22;58893;53.130;8.158;2023-04-15T02:00:05;11.20;77.00
71188;DHT22;58893;53.130;8.158;2023-04-15T02:02:32;11.20;77.20
71188;DHT22;58893;53.130;8.158;2023-04-15T02:04:58;11.20;77.40
71188;DHT22;58893;53.130;8.158;2023-04-15T02:07:23;11.20;77.10
71188;DHT22;58893;53.130;8.158;2023-04-15T02:09:49;11.20;77.20
71188;DHT22;58893;53.130;8.158;2023-04-15T02:12:15;11.20;77.20
71188;DHT22;58893;53.130;8.158;2023-04-15T02:14:41;11.20;77.30
71188;DHT22;58893;53.130;8.158;2023-04-15T02:17:06;11.10;77.30
71188;DHT22;58893;53.130;8.158;2023-04-15T02:19:35;11.10;77.40
71188;DHT22;58893;53.130;8.158;2023-04-15T02:22:01;11.10;77.60
71188;DHT22;58893;53.130;8.158;2023-04-15T02:24:29;11.10;77.90
71188;DHT22;58893;53.130;8.158;2023-04-15T02:26:55;11.00;78.10
71188;DHT22;58893;53.130;8.158;2023-04-15T02:29:21;11.00;78.00
71188;DHT22;58893;53.130;8.158;2023-04-15T02:31:48;11.00;78.20
71188;DHT22;58893;53.130;8.158;2023-04-15T02:34:14;11.00;78.40
71188;DHT22;58893;53.130;8.158;2023-04-15T02:36:39;11.00;78.40
71188;DHT22;58893;53.130;8.158;2023-04-15T02:39:05;11.00;78.40
71188;DHT22;58893;53.130;8.158;2023-04-15T02:41:31;11.00;78.40
71188;DHT22;58893;53.130;8.158;2023-04-15T02:43:57;11.00;78.40
71188;DHT22;58893;53.130;8.158;2023-04-15T02:46:23;11.00;78.40
71188;DHT22;58893;53.130;8.158;2023-04-15T02:48:49;11.00;78.40
71188;DHT22;58893;53.130;8.158;2023-04-15T02:51:17;11.00;78.30
71188;DHT22;58893;53.130;8.158;2023-04-15T02:53:44;11.00;78.20
71188;DHT22;58893;53.130;8.158;2023-04-15T02:56:10;11.00;78.30
71188;DHT22;58893;53.130;8.158;2023-04-15T02:58:37;11.00;78.30
71188;DHT22;58893;53.130;8.158;2023-04-15T03:01:03;10.90;78.20
71188;DHT22;58893;53.130;8.158;2023-04-15T03:03:29;10.90;78.20
71188;DHT22;58893;53.130;8.158;2023-04-15T03:05:55;10.90;78.30
71188;DHT22;58893;53.130;8.158;2023-04-15T03:08:21;10.80;78.30
71188;DHT22;58893;53.130;8.158;2023-04-15T03:10:47;10.90;78.50
71188;DHT22;58893;53.130;8.158;2023-04-15T03:13:13;10.80;78.50
71188;DHT22;58893;53.130;8.158;2023-04-15T03:15:39;10.80;78.50
71188;DHT22;58893;53.130;8.158;2023-04-15T03:18:04;10.80;78.50
71188;DHT22;58893;53.130;8.158;2023-04-15T03:20:30;10.80;78.50
71188;DHT22;58893;53.130;8.158;2023-04-15T03:22:56;10.70;78.60
71188;DHT22;58893;53.130;8.158;2023-04-15T03:25:22;10.70;78.70
71188;DHT22;58893;53.130;8.158;2023-04-15T03:27:47;10.70;78.90
71188;DHT22;58893;53.130;8.158;2023-04-15T03:30:13;10.70;78.90
71188;DHT22;58893;53.130;8.158;2023-04-15T03:32:39;10.70;79.00
71188;DHT22;58893;53.130;8.158;2023-04-15T03:35:04;10.70;79.20
71188;DHT22;58893;53.130;8.158;2023-04-15T03:37:31;10.70;79.20
71188;DHT22;58893;53.130;8.158;2023-04-15T03:39:56;10.70;79.30
71188;DHT22;58893;53.130;8.158;2023-04-15T03:42:22;10.70;79.40
71188;DHT22;58893;53.130;8.158;2023-04-15T03:44:48;10.70;79.50
71188;DHT22;58893;53.130;8.158;2023-04-15T03:47:14;10.70;79.40
71188;DHT22;58893;53.130;8.158;2023-04-15T03:49:40;10.60;79.40
71188;DHT22;58893;53.130;8.158;2023-04-15T03:52:05;10.70;79.50
71188;DHT22;58893;53.130;8.158;2023-04-15T03:54:31;10.60;79.50
71188;DHT22;58893;53.130;8.158;2023-04-15T03:56:57;10.60;79.50
71188;DHT22;58893;53.130;8.158;2023-04-15T03:59:22;10.60;79.70
71188;DHT22;58893;53.130;8.158;2023-04-15T04:01:48;10.60;79.80
71188;DHT22;58893;53.130;8.158;2023-04-15T04:04:14;10.60;80.00
71188;DHT22;58893;53.130;8.158;2023-04-15T04:06:40;10.60;80.30
71188;DHT22;58893;53.130;8.158;2023-04-15T04:09:05;10.60;80.50
71188;DHT22;58893;53.130;8.158;2023-04-15T04:11:31;10.60;80.80
71188;DHT22;58893;53.130;8.158;2023-04-15T04:13:57;10.60;81.20
71188;DHT22;58893;53.130;8.158;2023-04-15T04:16:23;10.60;81.30
71188;DHT22;58893;53.130;8.158;2023-04-15T04:18:49;10.90;82.10
71188;DHT22;58893;53.130;8.158;2023-04-15T04:21:15;10.60;81.90
71188;DHT22;58893;53.130;8.158;2023-04-15T04:23:40;10.60;82.20
71188;DHT22;58893;53.130;8.158;2023-04-15T04:26:06;10.60;82.50
71188;DHT22;58893;53.130;8.158;2023-04-15T04:28:32;10.60;82.80
71188;DHT22;58893;53.130;8.158;2023-04-15T04:30:57;10.70;83.10
71188;DHT22;58893;53.130;8.158;2023-04-15T04:33:23;10.70;83.40
71188;DHT22;58893;53.130;8.158;2023-04-15T04:35:49;10.70;83.70
71188;DHT22;58893;53.130;8.158;2023-04-15T04:38:15;10.70;83.90
71188;DHT22;58893;53.130;8.158;2023-04-15T04:40:40;10.70;84.20
71188;DHT22;58893;53.130;8.158;2023-04-15T04:43:06;10.70;84.50
71188;DHT22;58893;53.130;8.158;2023-04-15T04:45:32;10.70;90.30
71188;DHT22;58893;53.130;8.158;2023-04-15T04:47:57;10.70;84.90
71188;DHT22;58893;53.130;8.158;2023-04-15T04:50:23;10.70;85.20
71188;DHT22;58893;53.130;8.158;2023-04-15T04:52:48;10.80;85.50
71188;DHT22;58893;53.130;8.158;2023-04-15T04:55:14;10.80;85.80
71188;DHT22;58893;53.130;8.158;2023-04-15T04:57:40;10.80;86.10
71188;DHT22;58893;53.130;8.158;2023-04-15T05:00:06;10.70;86.10
71188;DHT22;58893;53.130;8.158;2023-04-15T05:02:33;10.80;86.40
71188;DHT22;58893;53.130;8.158;2023-04-15T05:04:59;10.80;86.70
71188;DHT22;58893;53.130;8.158;2023-04-15T05:07:25;10.80;86.90
71188;DHT22;58893;53.130;8.158;2023-04-15T05:09:50;10.80;87.40
71188;DHT22;58893;53.130;8.158;2023-04-15T05:12:16;10.90;87.30
71188;DHT22;58893;53.130;8.158;2023-04-15T05:14:43;10.90;88.20
71188;DHT22;58893;53.130;8.158;2023-04-15T05:17:08;10.90;87.80
71188;DHT22;58893;53.130;8.158;2023-04-15T05:19:35;10.90;88.00
71188;DHT22;58893;53.130;8.158;2023-04-15T05:22:01;10.90;88.10
71188;DHT22;58893;53.130;8.158;2023-04-15T05:24:26;10.90;88.20
71188;DHT22;58893;53.130;8.158;2023-04-15T05:26:52;10.90;88.20
71188;DHT22;58893;53.130;8.158;2023-04-15T05:29:18;11.00;88.40
71188;DHT22;58893;53.130;8.158;2023-04-15T05:31:43;11.00;88.40
71188;DHT22;58893;53.130;8.158;2023-04-15T05:34:09;11.00;88.50
71188;DHT22;58893;53.130;8.158;2023-04-15T05:36:36;11.00;88.50
71188;DHT22;58893;53.130;8.158;2023-04-15T05:39:02;11.10;88.70
71188;DHT22;58893;53.130;8.158;2023-04-15T05:41:28;11.00;88.90
71188;DHT22;58893;53.130;8.158;2023-04-15T05:43:55;11.10;88.90
71188;DHT22;58893;53.130;8.158;2023-04-15T05:46:21;11.10;88.90
71188;DHT22;58893;53.130;8.158;2023-04-15T05:48:47;11.10;88.90
71188;DHT22;58893;53.130;8.158;2023-04-15T05:51:12;11.20;89.00
71188;DHT22;58893;53.130;8.158;2023-04-15T05:53:38;11.10;89.10
71188;DHT22;58893;53.130;8.158;2023-04-15T05:56:06;11.10;89.30
71188;DHT22;58893;53.130;8.158;2023-04-15T05:58:32;11.10;90.00
71188;DHT22;58893;53.130;8.158;2023-04-15T06:00:57;11.20;91.20
71188;DHT22;58893;53.130;8.158;2023-04-15T06:03:23;11.20;89.60
71188;DHT22;58893;53.130;8.158;2023-04-15T06:05:49;11.20;89.80
71188;DHT22;58893;53.130;8.158;2023-04-15T06:08:15;11.20;89.80
71188;DHT22;58893;53.130;8.158;2023-04-15T06:10:41;11.20;90.00
71188;DHT22;58893;53.130;8.158;2023-04-15T06:13:07;11.30;90.10
71188;DHT22;58893;53.130;8.158;2023-04-15T06:15:32;11.30;90.20
71188;DHT22;58893;53.130;8.158;2023-04-15T06:17:58;11.20;90.20
71188;DHT22;58893;53.130;8.158;2023-04-15T06:20:24;11.30;90.30
71188;DHT22;58893;53.130;8.158;2023-04-15T06:22:49;11.30;90.40
71188;DHT22;58893;53.130;8.158;2023-04-15T06:25:15;11.30;90.50
71188;DHT22;58893;53.130;8.158;2023-04-15T06:27:41;11.30;90.60
71188;DHT22;58893;53.130;8.158;2023-04-15T06:30:07;11.30;91.50
71188;DHT22;58893;53.130;8.158;2023-04-15T06:32:33;11.30;91.00
71188;DHT22;58893;53.130;8.158;2023-04-15T06:34:59;11.30;91.20
71188;DHT22;58893;53.130;8.158;2023-04-15T06:37:24;11.30;91.40
71188;DHT22;58893;53.130;8.158;2023-04-15T06:39:50;11.30;91.40
71188;DHT22;58893;53.130;8.158;2023-04-15T06:42:16;11.30;91.50
71188;DHT22;58893;53.130;8.158;2023-04-15T06:44:41;11.30;91.60
71188;DHT22;58893;53.130;8.158;2023-04-15T06:47:07;11.40;91.80
71188;DHT22;58893;53.130;8.158;2023-04-15T06:49:33;11.40;92.00
71188;DHT22;58893;53.130;8.158;2023-04-15T06:51:59;11.40;95.40
71188;DHT22;58893;53.130;8.158;2023-04-15T06:54:26;11.40;92.10
71188;DHT22;58893;53.130;8.158;2023-04-15T06:56:52;11.40;92.20
71188;DHT22;58893;53.130;8.158;2023-04-15T06:59:17;11.40;92.40
71188;DHT22;58893;53.130;8.158;2023-04-15T07:01:43;11.40;92.60
71188;DHT22;58893;53.130;8.158;2023-04-15T07:04:09;11.40;92.80
71188;DHT22;58893;53.130;8.158;2023-04-15T07:06:35;11.40;93.00
71188;DHT22;58893;53.130;8.158;2023-04-15T07:09:01;11.40;93.10
71188;DHT22;58893;53.130;8.158;2023-04-15T07:11:27;11.40;93.30
71188;DHT22;58893;53.130;8.158;2023-04-15T07:13:53;11.40;93.40
71188;DHT22;58893;53.130;8.158;2023-04-15T07:16:19;11.40;93.50
71188;DHT22;58893;53.130;8.158;2023-04-15T07:18:44;11.40;93.60
71188;DHT22;58893;53.130;8.158;2023-04-15T07:21:10;11.40;93.80
71188;DHT22;58893;53.130;8.158;2023-04-15T07:23:36;11.40;94.00
71188;DHT22;58893;53.130;8.158;2023-04-15T07:26:02;11.50;94.20
71188;DHT22;58893;53.130;8.158;2023-04-15T07:28:28;11.50;94.30
71188;DHT22;58893;53.130;8.158;2023-04-15T07:30:54;11.50;94.50
71188;DHT22;58893;53.130;8.158;2023-04-15T07:33:21;11.50;94.60
71188;DHT22;58893;53.130;8.158;2023-04-15T07:35:47;11.50;94.80
71188;DHT22;58893;53.130;8.158;2023-04-15T07:38:13;11.50;94.90
71188;DHT22;58893;53.130;8.158;2023-04-15T07:40:38;11.50;95.00
71188;DHT22;58893;53.130;8.158;2023-04-15T07:43:05;11.50;95.10
71188;DHT22;58893;53.130;8.158;2023-04-15T07:45:31;11.50;95.20
71188;DHT22;58893;53.130;8.158;2023-04-15T07:47:57;11.50;95.40
71188;DHT22;58893;53.130;8.158;2023-04-15T07:50:23;11.50;95.40
71188;DHT22;58893;53.130;8.158;2023-04-15T07:52:51;11.50;95.50
71188;DHT22;58893;53.130;8.158;2023-04-15T07:55:18;11.50;95.70
71188;DHT22;58893;53.130;8.158;2023-04-15T07:57:45;11.50;95.80
71188;DHT22;58893;53.130;8.158;2023-04-15T08:00:12;11.50;95.90
71188;DHT22;58893;53.130;8.158;2023-04-15T08:02:39;11.50;96.10
71188;DHT22;58893;53.130;8.158;2023-04-15T08:05:05;11.40;96.20
71188;DHT22;58893;53.130;8.158;2023-04-15T08:07:31;11.40;96.30
71188;DHT22;58893;53.130;8.158;2023-04-15T08:09:57;11.40;96.50
71188;DHT22;58893;53.130;8.158;2023-04-15T08:12:23;11.40;96.60
71188;DHT22;58893;53.130;8.158;2023-04-15T08:14:50;11.40;97.10
71188;DHT22;58893;53.130;8.158;2023-04-15T08:17:15;11.40;97.00
71188;DHT22;58893;53.130;8.158;2023-04-15T08:19:41;11.40;97.20
71188;DHT22;58893;53.130;8.158;2023-04-15T08:22:07;11.40;97.30
71188;DHT22;58893;53.130;8.158;2023-04-15T08:24:33;11.40;97.40
71188;DHT22;58893;53.130;8.158;2023-04-15T08:26:59;11.50;97.50
71188;DHT22;58893;53.130;8.158;2023-04-15T08:29:26;11.50;97.60
71188;DHT22;58893;53.130;8.158;2023-04-15T08:31:52;11.50;97.70
71188;DHT22;58893;53.130;8.158;2023-04-15T08:34:18;11.50;97.70
71188;DHT22;58893;53.130;8.158;2023-04-15T08:36:44;11.50;97.70
71188;DHT22;58893;53.130;8.158;2023-04-15T08:39:09;11.50;97.70
71188;DHT22;58893;53.130;8.158;2023-04-15T08:41:53;11.50;97.80
71188;DHT22;58893;53.130;8.158;2023-04-15T08:44:22;11.60;97.90
71188;DHT22;58893;53.130;8.158;2023-04-15T08:46:48;11.50;97.80
71188;DHT22;58893;53.130;8.158;2023-04-15T08:49:14;11.50;97.90
71188;DHT22;58893;53.130;8.158;2023-04-15T08:51:42;11.50;97.90
71188;DHT22;58893;53.130;8.158;2023-04-15T08:54:08;11.50;97.90
71188;DHT22;58893;53.130;8.158;2023-04-15T08:56:35;11.50;98.00
71188;DHT22;58893;53.130;8.158;2023-04-15T08:59:01;11.50;98.00
71188;DHT22;58893;53.130;8.158;2023-04-15T09:01:28;11.60;98.10
71188;DHT22;58893;53.130;8.158;2023-04-15T09:03:54;11.60;98.10
71188;DHT22;58893;53.130;8.158;2023-04-15T09:06:22;11.60;98.20
71188;DHT22;58893;53.130;8.158;2023-04-15T09:08:49;11.60;98.20
71188;DHT22;58893;53.130;8.158;2023-04-15T09:11:14;11.60;98.20
71188;DHT22;58893;53.130;8.158;2023-04-15T09:13:42;11.60;98.20
71188;DHT22;58893;53.130;8.158;2023-04-15T09:16:08;11.50;98.30
71188;DHT22;58893;53.130;8.158;2023-04-15T09:18:35;11.50;98.30
71188;DHT22;58893;53.130;8.158;2023-04-15T09:21:15;11.50;98.40
71188;DHT22;58893;53.130;8.158;2023-04-15T09:23:56;11.60;98.50
71188;DHT22;58893;53.130;8.158;2023-04-15T09:26:35;11.50;98.50
71188;DHT22;58893;53.130;8.158;2023-04-15T09:29:08;11.50;98.50
71188;DHT22;58893;53.130;8.158;2023-04-15T09:31:35;11.50;98.60
71188;DHT22;58893;53.130;8.158;2023-04-15T09:34:01;11.50;98.70
71188;DHT22;58893;53.130;8.158;2023-04-15T09:36:27;11.50;98.70
71188;DHT22;58893;53.130;8.158;2023-04-15T09:38:57;11.50;98.70
71188;DHT22;58893;53.130;8.158;2023-04-15T09:41:24;11.50;98.80
71188;DHT22;58893;53.130;8.158;2023-04-15T09:43:50;11.50;98.90
71188;DHT22;58893;53.130;8.158;2023-04-15T09:46:16;11.50;99.10
71188;DHT22;58893;53.130;8.158;2023-04-15T09:48:41;11.60;99.20
71188;DHT22;58893;53.130;8.158;2023-04-15T09:51:07;11.50;99.20
71188;DHT22;58893;53.130;8.158;2023-04-15T09:53:35;11.60;99.30
71188;DHT22;58893;53.130;8.158;2023-04-15T09:56:01;11.60;99.30
71188;DHT22;58893;53.130;8.158;2023-04-15T09:58:29;11.60;99.30
71188;DHT22;58893;53.130;8.158;2023-04-15T10:00:56;11.60;99.20
71188;DHT22;58893;53.130;8.158;2023-04-15T10:03:32;11.60;99.40
71188;DHT22;58893;53.130;8.158;2023-04-15T10:06:00;11.60;99.50
71188;DHT22;58893;53.130;8.158;2023-04-15T10:08:28;11.60;99.50
71188;DHT22;58893;53.130;8.158;2023-04-15T10:10:54;11.60;99.70
71188;DHT22;58893;53.130;8.158;2023-04-15T10:13:23;11.60;99.90
71188;DHT22;58893;53.130;8.158;2023-04-15T10:16:09;11.60;99.90
71188;DHT22;58893;53.130;8.158;2023-04-15T10:18:37;11.60;99.90
71188;DHT22;58893;53.130;8.158;2023-04-15T10:21:06;11.50;99.90
71188;DHT22;58893;53.130;8.158;2023-04-15T10:23:33;11.50;99.90
71188;DHT22;58893;53.130;8.158;2023-04-15T10:25:59;11.60;99.90
71188;DHT22;58893;53.130;8.158;2023-04-15T10:28:25;11.50;99.90
71188;DHT22;58893;53.130;8.158;2023-04-15T10:30:51;11.50;99.90
71188;DHT22;58893;53.130;8.158;2023-04-15T10:33:20;11.50;99.90
71188;DHT22;58893;53.130;8.158;2023-04-15T10:35:48;11.50;99.90
71188;DHT22;58893;53.130;8.158;2023-04-15T10:38:40;11.50;99.90
71188;DHT22;58893;53.130;8.158;2023-04-15T10:43:46;11.50;99.90
71188;DHT22;58893;53.130;8.158;2023-04-15T10:46:12;11.50;99.90
71188;DHT22;58893;53.130;8.158;2023-04-15T10:48:46;11.60;99.90
71188;DHT22;58893;53.130;8.158;2023-04-15T10:51:13;11.60;99.90
71188;DHT22;58893;53.130;8.158;2023-04-15T10:53:41;11.60;99.90
71188;DHT22;58893;53.130;8.158;2023-04-15T10:56:07;11.60;99.90
71188;DHT22;58893;53.130;8.158;2023-04-15T10:58:41;11.60;99.90
71188;DHT22;58893;53.130;8.158;2023-04-15T11:01:07;11.60;99.90
71188;DHT22;58893;53.130;8.158;2023-04-15T11:03:36;11.60;99.90
71188;DHT22;58893;53.130;8.158;2023-04-15T11:06:06;11.60;99.90
71188;DHT22;58893;53.130;8.158;2023-04-15T11:08:59;11.70;99.90
71188;DHT22;58893;53.130;8.158;2023-04-15T11:12:03;11.70;99.90
71188;DHT22;58893;53.130;8.158;2023-04-15T11:14:32;11.70;99.90
71188;DHT22;58893;53.130;8.158;2023-04-15T11:16:58;11.70;99.90
71188;DHT22;58893;53.130;8.158;2023-04-15T11:19:24;11.70;99.90
71188;DHT22;58893;53.130;8.158;2023-04-15T11:21:50;11.70;99.90
71188;DHT22;58893;53.130;8.158;2023-04-15T11:24:35;11.70;99.90
71188;DHT22;58893;53.130;8.158;2023-04-15T11:27:01;11.70;99.90
71188;DHT22;58893;53.130;8.158;2023-04-15T11:29:32;11.70;99.90
71188;DHT22;58893;53.130;8.158;2023-04-15T11:32:05;11.70;99.90
71188;DHT22;58893;53.130;8.158;2023-04-15T11:34:33;11.70;99.90
71188;DHT22;58893;53.130;8.158;2023-04-15T11:37:03;11.70;99.90
71188;DHT22;58893;53.130;8.158;2023-04-15T11:39:28;11.70;99.90
71188;DHT22;58893;53.130;8.158;2023-04-15T11:41:54;11.70;99.90
71188;DHT22;58893;53.130;8.158;2023-04-15T11:44:20;11.70;99.90
71188;DHT22;58893;53.130;8.158;2023-04-15T11:46:46;11.70;99.90
71188;DHT22;58893;53.130;8.158;2023-04-15T11:49:24;11.70;99.90
71188;DHT22;58893;53.130;8.158;2023-04-15T11:51:49;11.70;99.90
71188;DHT22;58893;53.130;8.158;2023-04-15T11:54:18;11.70;99.90
71188;DHT22;58893;53.130;8.158;2023-04-15T11:56:49;11.70;99.90
71188;DHT22;58893;53.130;8.158;2023-04-15T11:59:15;11.70;99.90
71188;DHT22;58893;53.130;8.158;2023-04-15T12:01:41;11.70;99.90
71188;DHT22;58893;53.130;8.158;2023-04-15T12:04:16;11.70;99.90
71188;DHT22;58893;53.130;8.158;2023-04-15T12:06:44;11.70;99.90
71188;DHT22;58893;53.130;8.158;2023-04-15T12:09:12;11.70;99.90
71188;DHT22;58893;53.130;8.158;2023-04-15T12:14:11;11.70;99.90
71188;DHT22;58893;53.130;8.158;2023-04-15T12:16:41;11.70;99.90
71188;DHT22;58893;53.130;8.158;2023-04-15T12:19:14;11.70;99.90
71188;DHT22;58893;53.130;8.158;2023-04-15T12:21:44;11.70;99.90
71188;DHT22;58893;53.130;8.158;2023-04-15T12:24:10;11.60;99.90
71188;DHT22;58893;53.130;8.158;2023-04-15T12:26:51;11.60;99.90
71188;DHT22;58893;53.130;8.158;2023-04-15T12:29:18;11.60;99.90
71188;DHT22;58893;53.130;8.158;2023-04-15T12:31:58;11.60;99.90
71188;DHT22;58893;53.130;8.158;2023-04-15T12:34:30;11.60;99.90
71188;DHT22;58893;53.130;8.158;2023-04-15T12:36:56;11.60;99.90
71188;DHT22;58893;53.130;8.158;2023-04-15T12:39:26;11.60;99.90
71188;DHT22;58893;53.130;8.158;2023-04-15T12:41:53;11.60;99.90
71188;DHT22;58893;53.130;8.158;2023-04-15T12:44:21;11.60;99.90
71188;DHT22;58893;53.130;8.158;2023-04-15T12:46:47;11.60;99.90
71188;DHT22;58893;53.130;8.158;2023-04-15T12:49:12;11.60;99.90
71188;DHT22;58893;53.130;8.158;2023-04-15T12:51:48;11.60;99.90
71188;DHT22;58893;53.130;8.158;2023-04-15T12:54:15;11.70;99.90
71188;DHT22;58893;53.130;8.158;2023-04-15T12:56:42;11.70;99.90
71188;DHT22;58893;53.130;8.158;2023-04-15T12:59:08;11.70;99.90
71188;DHT22;58893;53.130;8.158;2023-04-15T13:01:34;11.70;99.90
71188;DHT22;58893;53.130;8.158;2023-04-15T13:04:00;11.80;99.90
71188;DHT22;58893;53.130;8.158;2023-04-15T13:06:26;11.80;99.90
71188;DHT22;58893;53.130;8.158;2023-04-15T13:08:53;11.80;99.90
71188;DHT22;58893;53.130;8.158;2023-04-15T13:11:20;11.80;99.90
71188;DHT22;58893;53.130;8.158;2023-04-15T13:13:47;11.80;99.90
71188;DHT22;58893;53.130;8.158;2023-04-15T13:16:12;11.80;99.90
71188;DHT22;58893;53.130;8.158;2023-04-15T13:18:38;11.80;99.90
71188;DHT22;58893;53.130;8.158;2023-04-15T13:21:03;11.80;99.90
71188;DHT22;58893;53.130;8.158;2023-04-15T13:23:32;11.80;99.90
71188;DHT22;58893;53.130;8.158;2023-04-15T13:25:58;11.80;99.90
71188;DHT22;58893;53.130;8.158;2023-04-15T13:28:23;11.80;99.90
71188;DHT22;58893;53.130;8.158;2023-04-15T13:30:49;11.80;99.90
71188;DHT22;58893;53.130;8.158;2023-04-15T13:33:16;11.80;99.90
71188;DHT22;58893;53.130;8.158;2023-04-15T13:35:41;11.90;99.90
71188;DHT22;58893;53.130;8.158;2023-04-15T13:38:07;11.80;99.90
71188;DHT22;58893;53.130;8.158;2023-04-15T13:40:33;11.80;99.90
71188;DHT22;58893;53.130;8.158;2023-04-15T13:42:58;11.80;99.90
71188;DHT22;58893;53.130;8.158;2023-04-15T13:45:25;11.80;99.90
71188;DHT22;58893;53.130;8.158;2023-04-15T13:47:51;11.80;99.90
71188;DHT22;58893;53.130;8.158;2023-04-15T13:50:17;11.80;99.90
71188;DHT22;58893;53.130;8.158;2023-04-15T13:52:43;11.80;99.90
71188;DHT22;58893;53.130;8.158;2023-04-15T13:55:08;11.80;99.90
71188;DHT22;58893;53.130;8.158;2023-04-15T13:57:34;11.80;99.90
71188;DHT22;58893;53.130;8.158;2023-04-15T14:00:00;11.80;99.90
71188;DHT22;58893;53.130;8.158;2023-04-15T14:02:26;11.80;99.90
71188;DHT22;58893;53.130;8.158;2023-04-15T14:04:52;11.90;99.90
71188;DHT22;58893;53.130;8.158;2023-04-15T14:07:17;11.90;99.90
71188;DHT22;58893;53.130;8.158;2023-04-15T14:09:43;11.90;99.90
71188;DHT22;58893;53.130;8.158;2023-04-15T14:12:09;11.90;99.90
71188;DHT22;58893;53.130;8.158;2023-04-15T14:14:35;11.90;99.90
71188;DHT22;58893;53.130;8.158;2023-04-15T14:17:02;11.90;99.90
71188;DHT22;58893;53.130;8.158;2023-04-15T14:19:29;11.90;99.90
71188;DHT22;58893;53.130;8.158;2023-04-15T14:21:55;11.90;99.90
71188;DHT22;58893;53.130;8.158;2023-04-15T14:24:21;11.90;99.90
71188;DHT22;58893;53.130;8.158;2023-04-15T14:26:47;11.90;99.90
71188;DHT22;58893;53.130;8.158;2023-04-15T14:29:13;12.00;99.90
71188;DHT22;58893;53.130;8.158;2023-04-15T14:31:39;12.00;99.90
71188;DHT22;58893;53.130;8.158;2023-04-15T14:34:05;12.00;99.90
71188;DHT22;58893;53.130;8.158;2023-04-15T14:36:31;12.10;99.90
71188;DHT22;58893;53.130;8.158;2023-04-15T14:38:57;12.10;99.90
71188;DHT22;58893;53.130;8.158;2023-04-15T14:41:22;12.20;99.90
71188;DHT22;58893;53.130;8.158;2023-04-15T14:43:48;12.20;99.90
71188;DHT22;58893;53.130;8.158;2023-04-15T14:46:14;12.20;99.90
71188;DHT22;58893;53.130;8.158;2023-04-15T14:48:40;12.20;99.90
71188;DHT22;58893;53.130;8.158;2023-04-15T14:51:06;12.30;99.90
71188;DHT22;58893;53.130;8.158;2023-04-15T14:53:32;12.30;99.90
71188;DHT22;58893;53.130;8.158;2023-04-15T14:55:58;12.40;99.90
71188;DHT22;58893;53.130;8.158;2023-04-15T14:58:23;12.40;99.90
71188;DHT22;58893;53.130;8.158;2023-04-15T15:00:49;12.40;99.90
71188;DHT22;58893;53.130;8.158;2023-04-15T15:03:15;12.40;99.90
71188;DHT22;58893;53.130;8.158;2023-04-15T15:05:44;12.50;99.90
71188;DHT22;58893;53.130;8.158;2023-04-15T15:08:10;12.50;99.90
71188;DHT22;58893;53.130;8.158;2023-04-15T15:10:36;12.50;99.90
71188;DHT22;58893;53.130;8.158;2023-04-15T15:13:03;12.50;99.90
71188;DHT22;58893;53.130;8.158;2023-04-15T15:15:29;12.60;99.90
71188;DHT22;58893;53.130;8.158;2023-04-15T15:17:55;12.60;99.90
71188;DHT22;58893;53.130;8.158;2023-04-15T15:20:20;12.60;99.90
71188;DHT22;58893;53.130;8.158;2023-04-15T15:22:47;12.70;99.90
71188;DHT22;58893;53.130;8.158;2023-04-15T15:25:12;12.70;99.90
71188;DHT22;58893;53.130;8.158;2023-04-15T15:27:38;12.70;99.90
71188;DHT22;58893;53.130;8.158;2023-04-15T15:30:04;12.70;99.90
71188;DHT22;58893;53.130;8.158;2023-04-15T15:32:31;12.80;99.90